createdAt,value
2018-05-03T00:02:07.820Z,13.00
2018-05-03T00:04:36.044Z,13.10
2018-05-03T00:07:04.331Z,13.10
2018-05-03T00:09:32.636Z,13.00
2018-05-03T00:12:00.907Z,13.00
2018-05-03T00:14:29.971Z,13.00
2018-05-03T00:16:58.269Z,12.90
2018-05-03T00:19:26.582Z,12.90
2018-05-03T00:21:55.615Z,12.90
2018-05-03T00:24:23.900Z,12.90
2018-05-03T00:26:52.188Z,12.90
2018-05-03T00:29:20.495Z,12.90
2018-05-03T00:31:49.532Z,12.80
2018-05-03T00:34:17.805Z,12.80
2018-05-03T00:36:46.863Z,12.80
2018-05-03T00:39:15.963Z,12.70
2018-05-03T00:41:44.983Z,12.70
2018-05-03T00:44:13.314Z,12.60
2018-05-03T00:46:41.613Z,12.70
2018-05-03T00:49:10.660Z,12.70
2018-05-03T00:51:38.956Z,12.60
2018-05-03T00:54:19.148Z,12.70
2018-05-03T00:56:48.164Z,12.70
2018-05-03T00:59:16.434Z,12.60
2018-05-03T01:01:44.706Z,12.60
2018-05-03T01:04:13.027Z,12.60
2018-05-03T01:06:41.291Z,12.60
2018-05-03T01:09:09.567Z,12.60
2018-05-03T01:11:37.823Z,12.60
2018-05-03T01:14:06.128Z,12.60
2018-05-03T01:16:34.364Z,12.60
2018-05-03T01:19:02.671Z,12.60
2018-05-03T01:21:30.965Z,12.50
2018-05-03T01:23:59.266Z,12.50
2018-05-03T01:26:27.537Z,12.50
2018-05-03T01:28:55.832Z,12.50
2018-05-03T01:31:24.852Z,12.50
2018-05-03T01:33:53.170Z,12.40
2018-05-03T01:36:28.302Z,12.50
2018-05-03T01:38:56.553Z,12.40
2018-05-03T01:41:24.831Z,12.40
2018-05-03T01:43:53.150Z,12.40
2018-05-03T01:46:21.440Z,12.40
2018-05-03T01:48:50.447Z,12.30
2018-05-03T01:51:19.470Z,12.30
2018-05-03T01:53:47.706Z,12.20
2018-05-03T01:56:16.770Z,12.20
2018-05-03T01:58:45.051Z,12.10
2018-05-03T02:01:13.367Z,12.20
2018-05-03T02:03:42.419Z,12.20
2018-05-03T02:06:10.693Z,12.10
2018-05-03T02:08:38.973Z,12.10
2018-05-03T02:11:07.279Z,12.00
2018-05-03T02:13:36.300Z,12.00
2018-05-03T02:16:04.610Z,12.00
2018-05-03T02:18:32.848Z,12.00
2018-05-03T02:21:01.128Z,12.00
2018-05-03T02:23:29.390Z,12.00
2018-05-03T02:25:58.447Z,11.90
2018-05-03T02:28:26.731Z,11.80
2018-05-03T02:30:55.010Z,11.80
2018-05-03T02:33:23.223Z,11.80
2018-05-03T02:35:51.474Z,11.80
2018-05-03T02:38:19.756Z,11.70
2018-05-03T02:40:48.788Z,11.70
2018-05-03T02:43:17.827Z,11.60
2018-05-03T02:45:46.112Z,11.60
2018-05-03T02:48:14.371Z,11.60
2018-05-03T02:50:42.668Z,11.60
2018-05-03T02:53:10.930Z,11.60
2018-05-03T02:55:39.231Z,11.50
2018-05-03T02:58:26.164Z,11.50
2018-05-03T03:01:17.969Z,11.50
2018-05-03T03:04:10.349Z,11.50
2018-05-03T03:07:02.007Z,11.40
2018-05-03T03:13:28.248Z,11.40
2018-05-03T03:16:19.829Z,11.40
2018-05-03T03:19:12.332Z,11.40
2018-05-03T03:22:04.045Z,11.30
2018-05-03T03:24:49.978Z,11.30
2018-05-03T03:27:43.066Z,11.30
2018-05-03T03:30:34.809Z,11.20
2018-05-03T03:33:20.790Z,11.30
2018-05-03T03:36:07.772Z,11.30
2018-05-03T03:38:54.825Z,11.40
2018-05-03T03:41:36.938Z,11.30
2018-05-03T03:44:22.970Z,11.40
2018-05-03T03:46:51.246Z,11.40
2018-05-03T03:49:19.550Z,11.40
2018-05-03T03:51:48.599Z,11.50
2018-05-03T03:54:16.843Z,11.40
2018-05-03T03:56:45.145Z,11.50
2018-05-03T03:59:13.594Z,11.50
2018-05-03T04:01:41.868Z,11.50
2018-05-03T04:04:10.132Z,11.50
2018-05-03T04:06:39.157Z,11.50
2018-05-03T04:09:07.488Z,11.50
2018-05-03T04:11:36.505Z,11.50
2018-05-03T04:14:04.778Z,11.50
2018-05-03T04:16:33.837Z,11.50
2018-05-03T04:19:20.048Z,11.50
2018-05-03T04:22:06.086Z,11.50
2018-05-03T04:24:52.260Z,11.50
2018-05-03T04:27:21.258Z,11.40
2018-05-03T04:29:50.322Z,11.40
2018-05-03T04:32:18.736Z,11.30
2018-05-03T04:34:47.036Z,11.30
2018-05-03T04:37:15.314Z,11.30
2018-05-03T04:39:43.705Z,11.30
2018-05-03T04:42:11.982Z,11.20
2018-05-03T04:44:40.267Z,11.20
2018-05-03T04:47:09.305Z,11.10
2018-05-03T04:49:38.444Z,11.10
2018-05-03T04:52:06.720Z,11.00
2018-05-03T04:54:34.985Z,11.10
2018-05-03T04:57:03.307Z,11.10
2018-05-03T04:59:31.587Z,11.10
2018-05-03T05:01:59.873Z,11.00
2018-05-03T05:04:28.882Z,11.00
2018-05-03T05:06:57.157Z,11.00
2018-05-03T05:09:25.445Z,11.00
2018-05-03T05:11:53.772Z,11.00
2018-05-03T05:14:22.085Z,11.00
2018-05-03T05:16:51.244Z,10.90
2018-05-03T05:19:19.663Z,10.90
2018-05-03T05:21:48.728Z,10.90
2018-05-03T05:24:17.123Z,10.90
2018-05-03T05:26:45.345Z,10.90
2018-05-03T05:29:13.724Z,10.90
2018-05-03T05:31:42.045Z,10.90
2018-05-03T05:34:10.318Z,10.90
2018-05-03T05:36:38.675Z,10.90
2018-05-03T05:39:06.993Z,10.90
2018-05-03T05:41:36.061Z,11.00
2018-05-03T05:44:04.341Z,10.90
2018-05-03T05:46:32.641Z,11.00
2018-05-03T05:49:01.764Z,11.10
2018-05-03T05:51:30.084Z,11.00
2018-05-03T05:53:58.335Z,11.10
2018-05-03T05:56:26.636Z,11.10
2018-05-03T05:58:55.024Z,11.20
2018-05-03T06:01:23.287Z,11.20
2018-05-03T06:03:51.627Z,11.30
2018-05-03T06:06:19.941Z,11.30
2018-05-03T06:08:48.165Z,11.40
2018-05-03T06:11:17.169Z,11.50
2018-05-03T06:13:45.421Z,11.40
2018-05-03T06:16:14.533Z,11.60
2018-05-03T06:18:43.567Z,11.70
2018-05-03T06:21:11.865Z,11.60
2018-05-03T06:23:40.157Z,11.70
2018-05-03T06:26:08.467Z,11.80
2018-05-03T06:28:36.824Z,11.90
2018-05-03T06:31:05.871Z,12.10
2018-05-03T06:33:34.203Z,12.00
2018-05-03T06:36:03.245Z,12.30
2018-05-03T06:38:31.588Z,12.20
2018-05-03T06:40:59.798Z,12.40
2018-05-03T06:43:28.097Z,12.40
2018-05-03T06:45:56.394Z,12.50
2018-05-03T06:48:25.409Z,12.80
2018-05-03T06:50:54.420Z,12.90
2018-05-03T06:53:22.708Z,12.90
2018-05-03T06:55:50.973Z,13.10
2018-05-03T06:58:19.243Z,13.20
2018-05-03T07:00:47.517Z,13.40
2018-05-03T07:03:15.840Z,13.50
2018-05-03T07:05:44.120Z,13.60
2018-05-03T07:08:12.385Z,13.70
2018-05-03T07:10:40.643Z,13.80
2018-05-03T07:13:08.908Z,13.90
2018-05-03T07:15:37.209Z,14.10
2018-05-03T07:18:05.652Z,14.20
2018-05-03T07:20:33.928Z,14.30
2018-05-03T07:23:02.992Z,14.50
2018-05-03T07:25:31.215Z,14.50
2018-05-03T07:27:59.509Z,14.60
2018-05-03T07:30:27.795Z,14.80
2018-05-03T07:32:56.103Z,14.80
2018-05-03T07:35:24.374Z,14.90
2018-05-03T07:37:52.649Z,14.90
2018-05-03T07:40:20.901Z,15.00
2018-05-03T07:42:49.205Z,15.00
2018-05-03T07:45:17.513Z,15.00
2018-05-03T07:47:46.554Z,15.00
2018-05-03T07:50:14.815Z,15.00
2018-05-03T07:52:43.074Z,15.00
2018-05-03T07:55:11.346Z,15.10
2018-05-03T07:57:39.810Z,15.10
2018-05-03T08:00:08.862Z,15.20
2018-05-03T08:02:37.111Z,15.20
2018-05-03T08:05:05.376Z,15.20
2018-05-03T08:10:33.525Z,15.30
2018-05-03T08:13:01.793Z,15.30
2018-05-03T08:15:30.069Z,15.40
2018-05-03T08:17:58.335Z,15.50
2018-05-03T08:20:27.329Z,15.50
2018-05-03T08:23:01.489Z,15.60
2018-05-03T08:25:30.537Z,15.70
2018-05-03T08:27:58.813Z,15.70
2018-05-03T08:30:27.125Z,15.80
2018-05-03T08:32:55.449Z,15.80
2018-05-03T08:35:23.745Z,15.80
2018-05-03T08:37:52.068Z,15.80
2018-05-03T08:40:21.244Z,15.90
2018-05-03T08:42:49.556Z,15.90
2018-05-03T08:45:18.589Z,16.10
2018-05-03T08:47:46.907Z,16.10
2018-05-03T08:50:15.173Z,16.20
2018-05-03T08:52:43.442Z,16.30
2018-05-03T08:55:11.736Z,16.40
2018-05-03T08:57:40.052Z,16.40
2018-05-03T09:00:08.384Z,16.50
2018-05-03T09:02:36.630Z,16.60
2018-05-03T09:05:04.905Z,16.60
2018-05-03T09:07:33.195Z,16.70
2018-05-03T09:10:01.475Z,16.70
2018-05-03T09:12:29.801Z,16.70
2018-05-03T09:14:58.829Z,16.70
2018-05-03T09:17:27.108Z,16.70
2018-05-03T09:19:55.381Z,16.80
2018-05-03T09:22:23.705Z,16.80
2018-05-03T09:24:52.717Z,16.90
2018-05-03T09:27:21.757Z,17.00
2018-05-03T09:29:50.026Z,16.90
2018-05-03T09:32:18.312Z,17.10
2018-05-03T09:34:46.610Z,17.20
2018-05-03T09:37:14.908Z,17.30
2018-05-03T09:39:43.956Z,17.50
2018-05-03T09:42:12.247Z,17.40
2018-05-03T09:44:40.532Z,17.50
2018-05-03T09:47:08.828Z,17.50
2018-05-03T09:49:37.901Z,17.70
2018-05-03T09:52:06.179Z,17.60
2018-05-03T09:54:34.461Z,17.70
2018-05-03T09:57:02.747Z,17.90
2018-05-03T09:59:31.080Z,18.00
2018-05-03T10:02:00.110Z,18.00
2018-05-03T10:04:28.393Z,18.00
2018-05-03T10:06:56.648Z,18.00
2018-05-03T10:09:24.974Z,17.90
2018-05-03T10:11:54.010Z,17.90
2018-05-03T10:14:22.268Z,17.80
2018-05-03T10:16:50.528Z,17.90
2018-05-03T10:19:18.810Z,18.00
2018-05-03T10:21:47.197Z,18.00
2018-05-03T10:24:15.468Z,18.00
2018-05-03T10:26:43.784Z,17.90
2018-05-03T10:29:12.024Z,17.90
2018-05-03T10:31:40.297Z,17.90
2018-05-03T10:34:08.591Z,18.00
2018-05-03T10:36:37.647Z,18.10
2018-05-03T10:39:06.708Z,18.20
2018-05-03T10:41:34.981Z,18.10
2018-05-03T10:44:03.231Z,18.30
2018-05-03T10:46:31.500Z,18.40
2018-05-03T10:48:59.951Z,18.40
2018-05-03T10:51:28.344Z,18.50
2018-05-03T10:53:56.683Z,18.50
2018-05-03T10:56:25.000Z,18.50
2018-05-03T10:58:53.293Z,18.60
2018-05-03T11:01:21.598Z,18.50
2018-05-03T11:03:49.846Z,18.50
2018-05-03T11:06:18.112Z,18.50
2018-05-03T11:08:46.390Z,18.40
2018-05-03T11:11:14.704Z,18.50
2018-05-03T11:13:42.961Z,18.50
2018-05-03T11:16:11.247Z,18.60
2018-05-03T11:18:39.507Z,18.60
2018-05-03T11:21:07.825Z,18.70
2018-05-03T11:23:36.069Z,18.80
2018-05-03T11:26:04.411Z,18.70
2018-05-03T11:28:33.467Z,18.70
2018-05-03T11:31:01.736Z,18.70
2018-05-03T11:33:30.062Z,18.70
2018-05-03T11:35:59.190Z,18.80
2018-05-03T11:38:27.496Z,18.70
2018-05-03T11:40:55.819Z,18.80
2018-05-03T11:43:24.073Z,18.70
2018-05-03T11:45:52.391Z,18.70
2018-05-03T11:48:20.662Z,18.70
2018-05-03T11:50:49.039Z,18.70
2018-05-03T11:53:17.334Z,18.80
2018-05-03T11:55:45.570Z,18.80
2018-05-03T11:58:14.671Z,19.00
2018-05-03T12:00:43.743Z,19.00
2018-05-03T12:03:12.015Z,19.00
2018-05-03T12:05:40.287Z,19.10
2018-05-03T12:08:08.613Z,19.10
2018-05-03T12:10:36.860Z,19.20
2018-05-03T12:13:05.908Z,19.30
2018-05-03T12:15:34.199Z,19.20
2018-05-03T12:18:02.521Z,19.30
2018-05-03T12:20:31.589Z,19.20
2018-05-03T12:22:59.851Z,19.20
2018-05-03T12:25:28.088Z,19.20
2018-05-03T12:27:56.373Z,19.20
2018-05-03T12:30:24.660Z,19.20
2018-05-03T12:32:52.987Z,19.20
2018-05-03T12:35:22.060Z,19.20
2018-05-03T12:37:50.324Z,19.20
2018-05-03T12:40:18.625Z,19.20
2018-05-03T12:42:46.886Z,19.30
2018-05-03T12:45:15.150Z,19.30
2018-05-03T12:47:44.196Z,19.30
2018-05-03T12:50:13.295Z,19.30
2018-05-03T12:52:42.324Z,19.40
2018-05-03T12:55:10.669Z,19.40
2018-05-03T12:57:39.735Z,19.60
2018-05-03T13:00:08.053Z,19.60
2018-05-03T13:02:36.340Z,19.70
2018-05-03T13:05:04.663Z,19.80
2018-05-03T13:07:32.948Z,19.90
2018-05-03T13:10:01.199Z,20.00
2018-05-03T13:12:29.439Z,20.00
2018-05-03T13:14:57.790Z,20.10
2018-05-03T13:17:26.861Z,20.30
2018-05-03T13:19:55.188Z,20.20
2018-05-03T13:22:23.479Z,20.30
2018-05-03T13:24:51.760Z,20.40
2018-05-03T13:27:20.099Z,20.40
2018-05-03T13:29:49.128Z,20.50
2018-05-03T13:32:17.403Z,20.50
2018-05-03T13:34:45.711Z,20.60
2018-05-03T13:37:13.968Z,20.60
2018-05-03T13:39:42.235Z,20.60
2018-05-03T13:42:10.502Z,20.60
2018-05-03T13:44:38.770Z,20.60
2018-05-03T13:47:07.822Z,20.70
2018-05-03T13:49:36.129Z,20.60
2018-05-03T13:52:05.169Z,20.80
2018-05-03T13:54:33.455Z,20.70
2018-05-03T13:57:02.510Z,20.70
2018-05-03T13:59:31.558Z,20.60
2018-05-03T14:01:59.836Z,20.50
2018-05-03T14:04:28.115Z,20.40
2018-05-03T14:06:56.386Z,20.40
2018-05-03T14:09:24.662Z,20.30
2018-05-03T14:11:52.989Z,20.20
2018-05-03T14:14:21.317Z,20.20
2018-05-03T14:16:49.646Z,20.30
2018-05-03T14:19:18.717Z,20.30
2018-05-03T14:21:47.045Z,20.20
2018-05-03T14:24:15.355Z,20.30
2018-05-03T14:26:43.638Z,20.30
2018-05-03T14:29:11.961Z,20.30
2018-05-03T14:31:40.275Z,20.40
2018-05-03T14:34:08.551Z,20.30
2018-05-03T14:36:36.841Z,20.30
2018-05-03T14:39:05.157Z,20.30
2018-05-03T14:41:33.494Z,20.40
2018-05-03T14:44:01.778Z,20.40
2018-05-03T14:46:30.074Z,20.40
2018-05-03T14:48:59.111Z,20.30
2018-05-03T14:51:27.388Z,20.30
2018-05-03T14:53:55.632Z,20.30
2018-05-03T14:56:24.707Z,20.20
2018-05-03T14:58:52.977Z,20.20
2018-05-03T15:01:21.331Z,20.20
2018-05-03T15:03:49.590Z,20.20
2018-05-03T15:06:17.890Z,20.20
2018-05-03T15:08:46.234Z,20.10
2018-05-03T15:11:14.588Z,20.10
2018-05-03T15:13:43.654Z,20.10
2018-05-03T15:16:12.031Z,20.10
2018-05-03T15:18:41.548Z,20.20
2018-05-03T15:21:09.910Z,20.30
2018-05-03T15:23:38.369Z,20.30
2018-05-03T15:26:06.676Z,20.30
2018-05-03T15:28:34.949Z,20.30
2018-05-03T15:31:03.271Z,20.30
2018-05-03T15:33:32.317Z,20.30
2018-05-03T15:36:00.668Z,20.30
2018-05-03T15:38:28.958Z,20.40
2018-05-03T15:40:57.188Z,20.40
2018-05-03T15:43:26.289Z,20.40
2018-05-03T15:45:55.438Z,20.40
2018-05-03T15:48:23.743Z,20.40
2018-05-03T15:50:52.007Z,20.40
2018-05-03T15:53:20.287Z,20.50
2018-05-03T15:55:48.586Z,20.50
2018-05-03T15:58:17.637Z,20.50
2018-05-03T16:00:45.949Z,20.50
2018-05-03T16:03:15.049Z,20.50
2018-05-03T16:05:44.131Z,20.40
2018-05-03T16:08:12.429Z,20.40
2018-05-03T16:10:41.446Z,20.20
2018-05-03T16:13:09.728Z,20.10
2018-05-03T16:15:38.025Z,20.10
2018-05-03T16:18:06.430Z,20.00
2018-05-03T16:20:34.821Z,19.90
2018-05-03T16:23:03.151Z,19.80
2018-05-03T16:25:31.429Z,19.80
2018-05-03T16:27:59.711Z,19.70
2018-05-03T16:30:27.989Z,19.70
2018-05-03T16:32:56.303Z,19.70
2018-05-03T16:35:24.589Z,19.70
2018-05-03T16:37:53.743Z,19.60
2018-05-03T16:40:22.084Z,19.60
2018-05-03T16:42:50.367Z,19.60
2018-05-03T16:45:18.699Z,19.60
2018-05-03T16:47:47.040Z,19.70
2018-05-03T16:50:15.291Z,19.70
2018-05-03T16:52:43.677Z,19.80
2018-05-03T16:55:12.013Z,19.90
2018-05-03T16:57:40.356Z,20.00
2018-05-03T17:00:08.703Z,20.10
2018-05-03T17:02:37.042Z,20.10
2018-05-03T17:05:05.484Z,20.10
2018-05-03T17:07:33.838Z,20.10
2018-05-03T17:10:02.970Z,20.20
2018-05-03T17:12:31.310Z,20.10
2018-05-03T17:15:00.439Z,20.20
2018-05-03T17:17:28.760Z,20.20
2018-05-03T17:19:57.093Z,20.20
2018-05-03T17:22:25.455Z,20.10
2018-05-03T17:24:53.773Z,20.10
2018-05-03T17:27:22.096Z,20.20
2018-05-03T17:29:51.167Z,20.20
2018-05-03T17:32:19.513Z,20.10
2018-05-03T17:34:47.788Z,20.20
2018-05-03T17:37:16.088Z,20.10
2018-05-03T17:39:44.399Z,20.00
2018-05-03T17:42:13.457Z,19.90
2018-05-03T17:44:41.844Z,19.80
2018-05-03T17:47:10.151Z,19.70
2018-05-03T17:49:39.187Z,19.50
2018-05-03T17:52:07.475Z,19.50
2018-05-03T17:54:35.794Z,19.40
2018-05-03T17:57:04.843Z,19.30
2018-05-03T17:59:33.109Z,19.30
2018-05-03T18:02:01.411Z,19.30
2018-05-03T18:04:29.731Z,19.20
2018-05-03T18:06:58.741Z,19.00
2018-05-03T18:09:27.042Z,19.00
2018-05-03T18:11:55.341Z,19.00
2018-05-03T18:14:23.620Z,18.90
2018-05-03T18:16:51.960Z,18.90
2018-05-03T18:19:21.707Z,18.70
2018-05-03T18:21:49.963Z,18.50
2018-05-03T18:24:18.269Z,18.30
2018-05-03T18:26:46.569Z,18.20
2018-05-03T18:29:15.628Z,18.00
2018-05-03T18:31:43.863Z,18.00
2018-05-03T18:34:12.225Z,18.00
2018-05-03T18:36:40.501Z,17.90
2018-05-03T18:39:09.562Z,17.70
2018-05-03T18:41:37.944Z,17.70
2018-05-03T18:44:06.989Z,17.70
2018-05-03T18:46:36.201Z,17.60
2018-05-03T18:49:04.499Z,17.60
2018-05-03T18:51:32.774Z,17.50
2018-05-03T18:54:01.050Z,17.50
2018-05-03T18:56:29.293Z,17.40
2018-05-03T18:58:57.609Z,17.30
2018-05-03T19:01:25.909Z,17.20
2018-05-03T19:03:54.233Z,17.20
2018-05-03T19:06:22.593Z,17.10
2018-05-03T19:08:51.635Z,17.00
2018-05-03T19:11:19.928Z,16.90
2018-05-03T19:13:48.221Z,16.90
2018-05-03T19:16:17.285Z,16.70
2018-05-03T19:18:45.625Z,16.70
2018-05-03T19:21:13.911Z,16.70
2018-05-03T19:23:42.283Z,16.60
2018-05-03T19:26:11.319Z,16.50
2018-05-03T19:28:39.587Z,16.50
2018-05-03T19:31:07.912Z,16.50
2018-05-03T19:33:36.995Z,16.40
2018-05-03T19:36:06.054Z,16.20
2018-05-03T19:38:34.320Z,16.20
2018-05-03T19:41:02.590Z,16.10
2018-05-03T19:43:30.918Z,16.00
2018-05-03T19:45:59.147Z,15.90
2018-05-03T19:48:27.430Z,15.80
2018-05-03T19:50:55.689Z,15.70
2018-05-03T19:53:23.968Z,15.60
2018-05-03T19:55:52.243Z,15.60
2018-05-03T19:58:21.131Z,15.50
2018-05-03T20:00:49.394Z,15.40
2018-05-03T20:03:17.647Z,15.30
2018-05-03T20:05:46.717Z,15.20
2018-05-03T20:08:15.277Z,15.10
2018-05-03T20:10:43.645Z,15.10
2018-05-03T20:13:11.918Z,15.00
2018-05-03T20:15:40.224Z,14.90
2018-05-03T20:18:08.541Z,14.80
2018-05-03T20:20:39.179Z,14.60
2018-05-03T20:23:08.201Z,14.60
2018-05-03T20:25:36.487Z,14.50
2018-05-03T20:28:05.599Z,14.40
2018-05-03T20:30:33.861Z,14.30
2018-05-03T20:33:02.133Z,14.30
2018-05-03T20:35:30.477Z,14.20
2018-05-03T20:37:59.520Z,14.10
2018-05-03T20:40:27.847Z,14.00
2018-05-03T20:42:56.879Z,13.90
2018-05-03T20:45:25.137Z,13.90
2018-05-03T20:47:53.408Z,13.90
2018-05-03T20:50:22.464Z,13.70
2018-05-03T20:52:50.769Z,13.70
2018-05-03T20:55:19.857Z,13.60
2018-05-03T20:57:48.964Z,13.50
2018-05-03T21:00:17.244Z,13.50
2018-05-03T21:02:46.285Z,13.40
2018-05-03T21:05:14.546Z,13.30
2018-05-03T21:07:42.824Z,13.30
2018-05-03T21:10:11.111Z,13.20
2018-05-03T21:12:39.441Z,13.20
2018-05-03T21:15:07.777Z,13.10
2018-05-03T21:17:36.021Z,13.10
2018-05-03T21:20:04.370Z,13.00
2018-05-03T21:22:33.439Z,12.90
2018-05-03T21:25:01.796Z,12.90
2018-05-03T21:27:30.068Z,12.80
2018-05-03T21:29:58.414Z,12.80
2018-05-03T21:32:27.464Z,12.70
2018-05-03T21:34:55.778Z,12.70
2018-05-03T21:37:24.836Z,12.70
2018-05-03T21:39:53.137Z,12.60
2018-05-03T21:42:22.195Z,12.50
2018-05-03T21:44:50.499Z,12.50
2018-05-03T21:47:18.764Z,12.50
2018-05-03T21:49:47.077Z,12.50
2018-05-03T21:52:16.144Z,12.40
2018-05-03T21:54:44.479Z,12.30
2018-05-03T21:57:12.756Z,12.30
2018-05-03T21:59:41.050Z,12.30
2018-05-03T22:02:09.315Z,12.20
2018-05-03T22:04:37.754Z,12.20
2018-05-03T22:07:08.536Z,12.10
2018-05-03T22:09:36.865Z,12.10
2018-05-03T22:12:05.944Z,12.10
2018-05-03T22:14:34.255Z,12.00
2018-05-03T22:17:03.315Z,12.00
2018-05-03T22:19:31.639Z,11.90
2018-05-03T22:21:59.896Z,12.00
2018-05-03T22:24:28.949Z,11.90
2018-05-03T22:27:05.874Z,11.90
2018-05-03T22:29:34.196Z,11.90
2018-05-03T22:32:02.488Z,11.80
2018-05-03T22:34:30.816Z,11.80
2018-05-03T22:36:59.136Z,11.80
2018-05-03T22:39:27.404Z,11.80
2018-05-03T22:41:55.688Z,11.70
2018-05-03T22:44:23.937Z,11.70
2018-05-03T22:46:52.230Z,11.60
2018-05-03T22:49:21.328Z,11.60
2018-05-03T22:51:49.627Z,11.50
2018-05-03T22:54:17.921Z,11.50
2018-05-03T22:56:46.212Z,11.50
2018-05-03T22:59:15.292Z,11.50
2018-05-03T23:01:43.554Z,11.40
2018-05-03T23:04:11.847Z,11.50
2018-05-03T23:06:40.101Z,11.50
2018-05-03T23:09:08.815Z,11.40
2018-05-03T23:11:37.844Z,11.40
2018-05-03T23:14:06.147Z,11.30
2018-05-03T23:16:34.451Z,11.30
2018-05-03T23:19:02.731Z,11.30
2018-05-03T23:21:31.026Z,11.30
2018-05-03T23:24:00.052Z,11.20
2018-05-03T23:26:29.113Z,11.20
2018-05-03T23:28:58.195Z,11.20
2018-05-03T23:31:27.264Z,11.20
2018-05-03T23:33:55.538Z,11.10
2018-05-03T23:36:23.860Z,11.10
2018-05-03T23:38:52.908Z,11.00
2018-05-03T23:41:21.208Z,11.00
2018-05-03T23:43:49.454Z,11.00
2018-05-03T23:46:17.727Z,10.90
2018-05-03T23:48:46.039Z,10.90
2018-05-03T23:51:14.307Z,10.90
2018-05-03T23:53:42.577Z,10.80
2018-05-03T23:56:10.851Z,10.70
2018-05-03T23:58:39.137Z,10.70
